Time;durP1;ratioP1;P1;durP2;ratioP2;P2;SDS_P1;SDS_P2;PMS_P1;PMS_P2;Temp;Humidity;BMP_temperature;BMP_pressure;BME280_temperature;BME280_humidity;BME280_pressure;Samples;Min_cycle;Max_cycle;Signal;HPM_P1;HPM_P2
2024/02/17 00:00:51;;;;;;;;;51.25;42.75;;;;;6.28;59.22;101555.50;146617;597;46012;-77
2024/02/17 00:03:50;;;;;;;;;36.25;32.25;;;;;7.91;59.04;101795.47;146618;585;46012;-76
2024/02/17 00:06:48;;;;;;;;;59.25;45.50;;;;;8.00;58.90;101809.13;146617;617;46016;-76
2024/02/17 00:09:44;;;;;;;;;60.00;46.75;;;;;7.97;59.34;101809.75;146635;644;45020;-76
2024/02/17 00:12:47;;;;;;;;;60.00;47.75;;;;;7.92;59.17;101810.22;146635;573;45016;-68
2024/02/17 00:15:49;;;;;;;;;67.50;52.75;;;;;7.86;59.51;101808.94;146638;622;45013;-70
2024/02/17 00:18:49;;;;;;;;;61.75;47.25;;;;;7.80;60.25;101813.59;146633;574;45016;-70
2024/02/17 00:21:55;;;;;;;;;55.75;44.25;;;;;7.67;60.10;101821.16;146634;617;46020;-71
2024/02/17 00:24:48;;;;;;;;;46.50;38.00;;;;;7.50;60.64;101803.41;146635;570;45014;-70
2024/02/17 00:27:54;;;;;;;;;50.25;40.00;;;;;7.59;60.25;101819.63;146638;591;44582;-69
2024/02/17 00:30:48;;;;;;;;;40.50;33.25;;;;;7.58;60.77;101820.41;146633;633;45013;-69
2024/02/17 00:33:58;;;;;;;;;34.50;29.25;;;;;7.50;60.82;101817.19;146635;571;45021;-70
2024/02/17 00:36:54;;;;;;;;;27.50;25.00;;;;;7.40;62.01;101815.56;146634;569;46036;-69
2024/02/17 00:40:34;;;;;;;;;;;;;;;;;;;;;
2024/02/17 00:43:30;;;;;;;;;26.00;21.00;;;;;7.20;62.34;101813.06;146633;623;45014;-70
2024/02/17 00:46:33;;;;;;;;;22.25;20.00;;;;;7.08;61.32;101807.78;146639;632;45021;-68
2024/02/17 00:49:30;;;;;;;;;25.00;20.75;;;;;7.09;61.86;101809.56;146637;606;45016;-69
2024/02/17 00:52:29;;;;;;;;;24.50;22.50;;;;;7.13;62.26;101823.63;146635;597;45020;-68
2024/02/17 00:55:24;;;;;;;;;19.25;18.00;;;;;7.21;62.23;101821.69;146632;565;45017;-69
2024/02/17 00:58:31;;;;;;;;;32.00;28.50;;;;;7.22;62.07;101820.91;146635;650;45020;-68
2024/02/17 01:01:28;;;;;;;;;35.75;26.00;;;;;7.23;61.35;101821.03;146635;673;45017;-66
2024/02/17 01:04:37;;;;;;;;;31.75;25.75;;;;;7.25;61.89;101813.41;146635;588;46010;-68
2024/02/17 01:07:38;;;;;;;;;44.25;31.50;;;;;7.25;61.19;101814.31;146627;605;45017;-68
2024/02/17 01:10:33;;;;;;;;;34.50;30.50;;;;;7.24;61.79;101822.84;146614;580;46010;-67
2024/02/17 01:13:29;;;;;;;;;38.25;29.75;;;;;7.21;61.76;101822.59;146613;575;46016;-67
2024/02/17 01:16:22;;;;;;;;;45.00;37.25;;;;;7.18;61.66;101819.75;146615;589;46021;-79
2024/02/17 01:19:23;;;;;;;;;42.25;34.25;;;;;7.18;61.57;101818.06;146612;604;46914;-71
2024/02/17 01:22:21;;;;;;;;;56.25;43.00;;;;;7.14;62.41;101822.88;146612;585;48011;-75
2024/02/17 01:25:24;;;;;;;;;54.25;43.00;;;;;7.09;62.69;101824.16;146612;566;46034;-74
2024/02/17 01:28:26;;;;;;;;;54.75;42.75;;;;;5.45;62.79;101542.53;146615;569;46010;-74
2024/02/17 01:31:22;;;;;;;;;47.75;39.00;;;;;6.94;63.34;101824.66;146611;604;46914;-76
2024/02/17 01:34:22;;;;;;;;;46.00;37.50;;;;;6.88;63.50;101818.09;146614;571;46010;-75
2024/02/17 01:37:24;;;;;;;;;47.75;39.25;;;;;6.85;63.33;101820.44;146610;610;46033;-75
2024/02/17 01:40:25;;;;;;;;;59.00;46.75;;;;;6.86;63.51;101817.09;146613;563;46020;-75
2024/02/17 01:43:24;;;;;;;;;55.75;41.25;;;;;6.91;63.32;101818.38;146612;649;46016;-75
2024/02/17 01:46:20;;;;;;;;;55.75;43.00;;;;;6.80;63.48;101796.84;146612;613;46021;-74
2024/02/17 01:49:14;;;;;;;;;37.75;34.00;;;;;6.89;64.16;101815.66;146610;617;46012;-74
2024/02/17 01:52:32;;;;;;;;;34.50;29.50;;;;;6.81;64.26;101810.66;146614;674;47021;-70
2024/02/17 01:55:30;;;;;;;;;37.75;33.25;;;;;6.76;64.03;101824.81;146608;593;46016;-70
2024/02/17 01:58:35;;;;;;;;;34.75;31.00;;;;;6.76;62.76;101812.84;146612;629;46020;-70
2024/02/17 02:01:38;;;;;;;;;43.25;32.75;;;;;6.80;62.84;101814.91;146611;584;46029;-70
2024/02/17 02:04:41;;;;;;;;;39.25;31.25;;;;;6.84;62.74;101816.06;146613;715;46020;-71
2024/02/17 02:07:43;;;;;;;;;33.50;30.25;;;;;6.80;63.60;101809.75;146609;569;46034;-72
2024/02/17 02:10:49;;;;;;;;;37.50;33.25;;;;;6.74;63.58;101808.34;146613;604;46010;-71
2024/02/17 02:13:44;;;;;;;;;36.25;29.00;;;;;6.61;64.43;101788.38;146613;589;46012;-70
2024/02/17 02:16:38;;;;;;;;;29.75;28.75;;;;;6.66;64.82;101820.56;146614;651;46028;-71
2024/02/17 02:19:37;;;;;;;;;33.00;30.25;;;;;6.57;64.63;101812.06;146608;720;46016;-71
2024/02/17 02:22:47;;;;;;;;;35.25;30.50;;;;;6.48;64.83;101820.84;146612;640;46025;-79
2024/02/17 02:25:46;;;;;;;;;34.00;31.00;;;;;6.46;64.17;101822.38;146610;584;46914;-80
2024/02/17 02:28:43;;;;;;;;;36.50;30.00;;;;;6.46;65.47;101824.03;146614;585;46012;-78
2024/02/17 02:31:41;;;;;;;;;35.00;31.00;;;;;6.43;66.67;101824.69;146610;569;46016;-78
2024/02/17 02:34:39;;;;;;;;;42.00;32.75;;;;;6.37;67.33;101818.09;146615;588;46020;-78
2024/02/17 02:37:37;;;;;;;;;40.25;34.00;;;;;4.20;66.12;101427.28;146609;621;46013;-67
2024/02/17 02:40:37;;;;;;;;;36.00;31.50;;;;;6.46;65.72;101819.78;146614;714;46020;-67
2024/02/17 02:43:33;;;;;;;;;30.25;27.50;;;;;6.55;65.64;101813.63;146610;599;46030;-71
2024/02/17 02:46:35;;;;;;;;;30.00;24.50;;;;;6.56;65.73;101820.56;146612;611;46010;-71
2024/02/17 02:49:31;;;;;;;;;31.75;26.50;;;;;6.56;66.31;101833.47;146611;610;46016;-79
2024/02/17 02:52:24;;;;;;;;;27.75;24.75;;;;;4.56;65.48;101473.25;146612;614;46020;-78
2024/02/17 02:55:19;;;;;;;;;29.50;22.50;;;;;6.56;65.54;101823.16;146609;593;46016;-81
2024/02/17 02:58:11;;;;;;;;;30.00;24.75;;;;;6.60;65.50;101830.34;146613;564;46020;-74
2024/02/17 03:01:16;;;;;;;;;25.75;23.00;;;;;6.63;65.69;101830.63;146610;633;46016;-73
2024/02/17 03:04:18;;;;;;;;;29.50;23.00;;;;;6.64;65.60;101825.59;146613;574;46020;-73
2024/02/17 03:07:20;;;;;;;;;27.75;24.00;;;;;6.70;66.72;101838.13;146610;636;46017;-74
2024/02/17 03:10:21;;;;;;;;;24.50;19.50;;;;;6.71;66.91;101838.22;146612;593;46010;-74
2024/02/17 03:13:20;;;;;;;;;21.75;19.25;;;;;6.72;66.48;101840.03;146607;627;46015;-73
2024/02/17 03:16:34;;;;;;;;;25.50;20.50;;;;;6.77;65.64;101840.44;146612;600;47010;-72
2024/02/17 03:19:32;;;;;;;;;21.50;19.25;;;;;6.82;66.55;101846.87;146608;604;46016;-73
2024/02/17 03:22:28;;;;;;;;;20.25;18.75;;;;;6.86;66.18;101842.88;146612;631;46020;-72
2024/02/17 03:25:28;;;;;;;;;21.00;18.50;;;;;6.88;66.35;101846.47;146611;590;46016;-72
2024/02/17 03:28:37;;;;;;;;;25.50;21.00;;;;;6.87;66.44;101850.72;146614;621;46029;-73
2024/02/17 03:31:46;;;;;;;;;18.50;17.50;;;;;6.84;65.95;101853.03;146608;765;46028;-72
2024/02/17 03:34:47;;;;;;;;;21.75;18.00;;;;;6.88;65.95;101855.09;146613;656;46010;-74
2024/02/17 03:37:59;;;;;;;;;20.75;17.75;;;;;6.97;64.76;101864.37;146607;661;47012;-72
2024/02/17 03:41:05;;;;;;;;;21.00;19.00;;;;;7.00;66.51;101862.97;146614;564;46010;-74
2024/02/17 03:44:09;;;;;;;;;28.50;22.75;;;;;7.04;65.95;101858.97;146609;622;47017;-71
2024/02/17 03:47:13;;;;;;;;;19.25;16.75;;;;;7.10;66.64;101864.63;146610;564;46027;-69
2024/02/17 03:50:24;;;;;;;;;21.50;17.75;;;;;7.11;65.59;101864.78;146610;563;46034;-69
2024/02/17 03:53:21;;;;;;;;;17.00;14.50;;;;;5.45;66.01;101566.63;146614;565;46010;-70
2024/02/17 03:56:23;;;;;;;;;19.75;16.25;;;;;7.23;65.33;101863.97;146610;563;46016;-71
2024/02/17 03:59:30;;;;;;;;;18.25;18.25;;;;;7.29;66.12;101865.41;146611;572;46021;-74
2024/02/17 04:02:48;;;;;;;;;35.25;30.00;;;;;7.34;65.62;101870.94;146611;684;46016;-73
2024/02/17 04:05:50;;;;;;;;;38.25;28.00;;;;;7.35;65.54;101871.06;146612;700;46010;-72
2024/02/17 04:08:44;;;;;;;;;30.50;27.25;;;;;7.35;65.48;101873.66;146611;646;46016;-70
2024/02/17 04:11:49;;;;;;;;;28.50;25.25;;;;;7.29;64.98;101859.31;146615;571;46030;-68
2024/02/17 04:14:46;;;;;;;;;32.00;28.00;;;;;7.34;65.16;101871.81;146610;635;46016;-68
2024/02/17 04:17:47;;;;;;;;;40.75;30.25;;;;;7.34;65.24;101891.56;146611;573;47010;-69
2024/02/17 04:20:43;;;;;;;;;31.50;30.25;;;;;7.28;65.27;101889.38;146605;651;47914;-68
2024/02/17 04:23:56;;;;;;;;;32.75;30.00;;;;;7.26;65.13;101883.22;146606;593;47010;-73
2024/02/17 04:26:54;;;;;;;;;34.25;29.75;;;;;7.28;64.74;101886.78;146610;583;46031;-71
2024/02/17 04:30:03;;;;;;;;;33.75;30.00;;;;;7.32;65.62;101880.22;146614;602;46020;-72
2024/02/17 04:33:05;;;;;;;;;31.50;29.50;;;;;2.99;65.81;101136.41;146611;572;46014;-70
2024/02/17 04:36:09;;;;;;;;;31.50;27.50;;;;;7.20;66.49;101894.69;146608;621;47915;-69
2024/02/17 04:39:10;;;;;;;;;35.25;28.50;;;;;7.12;66.06;101892.38;146608;699;46014;-84
2024/02/17 04:42:10;;;;;;;;;35.50;31.75;;;;;7.09;66.32;101898.94;146613;564;46010;-81
2024/02/17 04:45:09;;;;;;;;;41.25;33.50;;;;;7.04;66.40;101896.00;146611;580;47014;-85
2024/02/17 04:48:26;;;;;;;;;46.25;34.50;;;;;7.00;67.51;101903.31;146617;626;45020;-83
2024/02/17 04:51:26;;;;;;;;;45.25;34.50;;;;;6.92;67.77;101901.00;146614;649;46012;-81
2024/02/17 04:54:20;;;;;;;;;42.50;34.75;;;;;6.48;67.00;101828.56;146604;767;47010;-82
2024/02/17 04:57:25;;;;;;;;;44.00;33.00;;;;;6.86;66.29;101980.44;146613;641;46013;-83
2024/02/17 05:00:31;;;;;;;;;38.25;32.75;;;;;6.84;67.12;101914.03;146614;581;46010;-84
2024/02/17 05:03:25;;;;;;;;;36.50;32.00;;;;;6.84;66.83;101912.34;146610;593;46016;-84
2024/02/17 05:06:24;;;;;;;;;36.00;31.75;;;;;6.92;66.19;101915.59;146612;573;46010;-84
2024/02/17 05:09:25;;;;;;;;;44.75;33.00;;;;;6.30;66.83;101805.47;146604;607;48914;-84
2024/02/17 05:12:29;;;;;;;;;36.00;32.50;;;;;6.98;66.49;101923.84;146613;586;46011;-80
2024/02/17 05:15:22;;;;;;;;;38.50;32.25;;;;;7.00;66.85;101919.69;146610;610;46914;-78
2024/02/17 05:18:30;;;;;;;;;34.50;31.50;;;;;6.84;67.88;101898.56;146609;661;46020;-77
2024/02/17 05:21:26;;;;;;;;;41.75;33.50;;;;;6.98;66.78;101935.81;146605;617;46014;-70
2024/02/17 05:24:27;;;;;;;;;36.50;30.75;;;;;6.58;67.35;101873.16;146607;652;46010;-70
2024/02/17 05:27:35;;;;;;;;;45.50;33.75;;;;;6.98;66.63;101933.22;146610;591;46016;-71
2024/02/17 05:30:34;;;;;;;;;36.50;31.50;;;;;7.02;66.10;101941.38;146609;611;47010;-67
2024/02/17 05:33:40;;;;;;;;;;;;;;;;;;;;;
2024/02/17 05:36:51;;;;;;;;;38.00;32.25;;;;;4.91;65.74;101552.47;146612;565;46010;-70
2024/02/17 05:39:50;;;;;;;;;38.75;32.25;;;;;7.21;66.14;101966.16;146611;644;46016;-71
2024/02/17 05:42:49;;;;;;;;;37.50;30.25;;;;;7.23;65.81;101962.94;146613;614;46010;-70
2024/02/17 05:45:47;;;;;;;;;36.00;30.75;;;;;7.25;66.10;101953.62;146606;591;47012;-68
2024/02/17 05:48:56;;;;;;;;;31.25;28.25;;;;;7.29;65.77;101973.75;146613;613;46010;-69
2024/02/17 05:51:56;;;;;;;;;33.00;29.50;;;;;7.36;65.40;101970.91;146610;591;46016;-69
2024/02/17 05:54:53;;;;;;;;;34.75;30.50;;;;;7.43;65.57;101976.59;146608;564;46021;-71
2024/02/17 05:57:48;;;;;;;;;37.75;33.00;;;;;7.42;66.35;101980.84;146607;595;46016;-69
2024/02/17 06:00:42;;;;;;;;;40.75;34.25;;;;;7.43;65.85;101989.50;146611;566;46010;-69
2024/02/17 06:03:49;;;;;;;;;42.75;34.00;;;;;7.48;65.81;101985.63;146608;588;48012;-72
2024/02/17 06:06:52;;;;;;;;;38.50;30.00;;;;;7.54;65.72;101986.13;146612;602;46010;-73
2024/02/17 06:09:54;;;;;;;;;35.50;31.00;;;;;7.57;66.16;101992.47;146631;592;45914;-74
2024/02/17 06:12:50;;;;;;;;;37.75;31.25;;;;;7.60;66.24;101996.94;146635;587;45020;-72
2024/02/17 06:15:57;;;;;;;;;39.00;31.00;;;;;7.63;66.09;101999.78;146631;644;46012;-73
2024/02/17 06:22:31;;;;;;;;;50.25;41.00;;;;;7.80;65.87;102008.94;146624;590;47915;-73
2024/02/17 06:25:26;;;;;;;;;54.50;43.50;;;;;7.86;65.66;102007.78;146626;672;45020;-74
2024/02/17 06:28:21;;;;;;;;;50.75;38.50;;;;;7.94;66.02;102005.81;146634;722;45014;-75
2024/02/17 06:31:19;;;;;;;;;51.75;41.25;;;;;8.01;65.65;102010.72;146634;612;45020;-74
2024/02/17 06:34:20;;;;;;;;;54.75;43.50;;;;;8.08;65.20;102019.87;146633;642;45016;-74
2024/02/17 06:37:19;;;;;;;;;57.25;44.75;;;;;8.11;64.87;102020.13;146633;628;45012;-70
2024/02/17 06:40:17;;;;;;;;;55.25;43.50;;;;;8.09;64.95;102016.50;146630;570;45017;-69
2024/02/17 06:43:19;;;;;;;;;58.25;46.50;;;;;8.10;65.03;102019.22;146636;609;45010;-69
2024/02/17 06:46:31;;;;;;;;;;;;;;;;;;;;;
2024/02/17 06:49:31;;;;;;;;;56.50;44.75;;;;;8.10;65.07;102041.56;146632;609;46012;-70
2024/02/17 06:52:37;;;;;;;;;52.00;40.50;;;;;8.13;65.30;102040.91;146630;580;45016;-68
2024/02/17 06:55:47;;;;;;;;;51.25;39.75;;;;;8.14;64.69;102041.03;146631;607;45011;-74
2024/02/17 06:58:47;;;;;;;;;53.75;41.00;;;;;8.15;65.52;102042.84;146635;625;45012;-74
2024/02/17 07:01:41;;;;;;;;;50.00;41.50;;;;;8.16;65.40;102044.66;146633;579;46013;-74
2024/02/17 07:04:38;;;;;;;;;49.00;39.50;;;;;8.20;65.59;102045.81;146634;579;46012;-74
2024/02/17 07:07:34;;;;;;;;;49.75;41.00;;;;;8.23;65.32;102038.31;146632;606;45020;-75
2024/02/17 07:10:35;;;;;;;;;49.25;40.25;;;;;8.29;64.06;102043.97;146609;570;46016;-74
2024/02/17 07:13:40;;;;;;;;;48.75;39.25;;;;;8.38;62.94;102043.81;146610;630;46010;-76
2024/02/17 07:17:04;;;;;;;;;54.75;44.00;;;;;8.52;63.00;102046.75;146611;583;46012;-75
2024/02/17 07:20:24;;;;;;;;;52.00;41.50;;;;;6.91;62.19;101767.69;146608;574;46020;-75
2024/02/17 07:23:19;;;;;;;;;53.50;41.25;;;;;8.85;63.11;102050.25;146611;570;46015;-71
2024/02/17 07:26:16;;;;;;;;;52.00;42.25;;;;;8.99;62.66;102053.91;146608;661;46010;-70
2024/02/17 07:29:16;;;;;;;;;50.25;39.00;;;;;9.05;62.34;102043.16;146607;575;46916;-71
2024/02/17 07:32:24;;;;;;;;;60.75;46.25;;;;;9.25;61.57;102043.94;146613;672;46010;-69
2024/02/17 07:35:23;;;;;;;;;57.75;46.25;;;;;9.46;62.29;102056.69;146611;612;46016;-74
2024/02/17 07:38:22;;;;;;;;;58.00;45.25;;;;;9.66;62.19;102055.66;146614;564;46010;-71
2024/02/17 07:41:19;;;;;;;;;57.25;44.75;;;;;9.82;61.24;102034.41;146611;564;46016;-69
2024/02/17 07:44:13;;;;;;;;;52.50;41.50;;;;;10.09;60.71;102059.78;146612;563;46010;-73
2024/02/17 07:47:07;;;;;;;;;56.25;43.50;;;;;10.26;59.67;102044.56;146608;576;47916;-74
2024/02/17 07:49:59;;;;;;;;;56.25;44.75;;;;;10.43;59.08;102051.00;146612;585;46010;-74
2024/02/17 07:52:53;;;;;;;;;50.50;40.50;;;;;10.60;59.16;102055.75;146609;599;46012;-72
2024/02/17 07:55:49;;;;;;;;;53.75;44.00;;;;;10.83;58.57;102052.19;146607;609;46010;-74
2024/02/17 07:58:46;;;;;;;;;57.25;45.00;;;;;11.15;59.20;102043.16;146607;583;46916;-74
2024/02/17 08:01:58;;;;;;;;;52.50;42.25;;;;;11.54;57.45;102045.94;146612;597;47038;-74
2024/02/17 08:04:56;;;;;;;;;61.75;47.50;;;;;11.93;55.89;102043.34;146608;674;46016;-74
2024/02/17 08:07:58;;;;;;;;;39.00;31.25;;;;;12.16;54.79;102050.09;146612;651;46020;-72
2024/02/17 08:10:59;;;;;;;;;47.00;36.25;;;;;12.32;60.50;102052.00;146609;692;47012;-68
2024/02/17 08:14:05;;;;;;;;;38.75;32.50;;;;;12.61;60.10;102053.87;146612;573;47010;-74
2024/02/17 08:17:01;;;;;;;;;55.00;44.00;;;;;13.02;59.23;102052.97;146610;600;46017;-71
2024/02/17 08:20:00;;;;;;;;;41.00;33.75;;;;;13.48;58.70;102048.91;146612;602;47020;-72
2024/02/17 08:22:55;;;;;;;;;55.75;45.00;;;;;13.96;54.40;102047.47;146609;602;46035;-71
2024/02/17 08:25:48;;;;;;;;;49.75;39.00;;;;;14.35;54.95;102055.78;146604;571;46020;-71
2024/02/17 08:29:10;;;;;;;;;54.00;41.00;;;;;14.67;51.11;102044.59;146609;577;47012;-71
2024/02/17 08:32:16;;;;;;;;;50.00;40.75;;;;;11.73;51.03;101512.84;146612;590;46021;-71
2024/02/17 08:35:25;;;;;;;;;56.25;43.25;;;;;14.84;51.95;102045.50;146608;622;46016;-72
2024/02/17 08:38:37;;;;;;;;;52.00;41.75;;;;;15.00;51.52;102047.25;146612;581;46035;-71
2024/02/17 08:41:39;;;;;;;;;51.00;41.00;;;;;15.13;51.08;102046.19;146609;630;46012;-72
2024/02/17 08:44:31;;;;;;;;;60.25;45.75;;;;;15.25;48.85;102050.34;146612;622;46010;-72
2024/02/17 08:47:33;;;;;;;;;53.75;42.25;;;;;15.30;48.01;102045.38;146609;564;46017;-72
2024/02/17 08:50:28;;;;;;;;;57.50;44.25;;;;;15.27;48.58;102044.31;146614;577;46020;-72
2024/02/17 08:53:24;;;;;;;;;50.75;41.50;;;;;15.25;48.84;102044.22;146611;579;46916;-72
2024/02/17 08:56:24;;;;;;;;;52.75;42.50;;;;;15.29;48.97;102046.19;146609;631;46010;-72
2024/02/17 08:59:29;;;;;;;;;54.50;43.00;;;;;15.36;48.00;102040.47;146609;565;46016;-76
2024/02/17 09:02:24;;;;;;;;;56.75;45.00;;;;;15.42;47.41;102045.09;146615;638;46010;-74
2024/02/17 09:05:24;;;;;;;;;57.25;45.50;;;;;15.47;47.25;102041.91;146591;573;48012;-75
2024/02/17 09:08:22;;;;;;;;;47.25;36.25;;;;;15.63;47.81;102043.63;146608;569;47010;-73
2024/02/17 09:11:19;;;;;;;;;45.50;37.00;;;;;15.88;47.19;102045.78;146606;588;46016;-77
2024/02/17 09:14:32;;;;;;;;;42.25;35.75;;;;;16.13;47.02;102042.69;146609;597;46020;-78
2024/02/17 09:17:28;;;;;;;;;42.75;34.75;;;;;16.34;45.70;102039.34;146605;618;46017;-82
2024/02/17 09:20:38;;;;;;;;;35.75;30.50;;;;;16.51;46.60;102038.44;146612;605;46020;-72
2024/02/17 09:23:43;;;;;;;;;36.25;31.50;;;;;16.63;45.18;102049.50;146607;567;46012;-72
2024/02/17 09:26:45;;;;;;;;;32.50;29.75;;;;;16.72;46.80;102050.75;146606;605;47012;-71
2024/02/17 09:29:56;;;;;;;;;24.75;23.75;;;;;13.46;46.50;101442.56;146607;600;47012;-74
2024/02/17 09:32:59;;;;;;;;;29.50;26.75;;;;;17.06;46.26;102042.78;146611;564;46021;-73
2024/02/17 09:36:06;;;;;;;;;32.50;26.50;;;;;17.25;45.18;102039.25;146610;584;46016;-72
2024/02/17 09:39:01;;;;;;;;;24.50;21.25;;;;;17.28;44.87;102042.03;146613;569;46021;-70
2024/02/17 09:41:54;;;;;;;;;26.00;22.00;;;;;17.24;45.68;102033.13;146608;607;47012;-75
2024/02/17 09:44:49;;;;;;;;;25.00;22.75;;;;;17.35;46.53;102038.84;146612;571;46021;-69
2024/02/17 09:47:52;;;;;;;;;23.00;21.25;;;;;17.55;47.32;102045.88;146607;564;46917;-71
2024/02/17 09:50:49;;;;;;;;;25.50;22.50;;;;;17.52;45.16;102030.00;146613;595;46020;-72
2024/02/17 09:53:53;;;;;;;;;25.25;22.25;;;;;17.46;46.76;102020.97;146609;630;46016;-65
2024/02/17 09:56:49;;;;;;;;;22.00;19.50;;;;;16.04;46.96;101783.22;146605;585;47010;-73
2024/02/17 09:59:46;;;;;;;;;23.50;19.25;;;;;17.47;47.94;102035.88;146604;583;47012;-74
2024/02/17 10:02:39;;;;;;;;;19.50;19.00;;;;;17.50;47.79;102038.62;146613;606;46021;-76
2024/02/17 10:05:36;;;;;;;;;15.25;14.50;;;;;17.55;47.93;102032.75;146609;573;46016;-73
2024/02/17 10:08:34;;;;;;;;;17.75;17.25;;;;;17.68;48.49;102036.81;146613;581;46021;-77
2024/02/17 10:11:29;;;;;;;;;11.75;11.75;;;;;17.83;48.29;102030.47;146609;585;46012;-76
2024/02/17 10:14:30;;;;;;;;;17.25;16.75;;;;;17.94;48.54;102043.22;146613;631;46021;-74
2024/02/17 10:17:39;;;;;;;;;20.50;17.00;;;;;17.96;46.92;102036.28;146610;598;46016;-76
2024/02/17 10:20:42;;;;;;;;;13.75;13.75;;;;;17.75;47.64;102030.97;146613;565;46020;-73
2024/02/17 10:23:50;;;;;;;;;18.75;16.50;;;;;17.52;48.07;102032.63;146605;625;47017;-74
2024/02/17 10:26:44;;;;;;;;;16.00;14.00;;;;;15.75;48.04;101770.53;146605;582;47020;-74
2024/02/17 10:29:41;;;;;;;;;14.75;12.75;;;;;16.96;49.03;102028.34;146611;579;46016;-75
2024/02/17 10:32:37;;;;;;;;;19.00;17.00;;;;;16.80;49.34;102028.47;146613;624;46020;-75
2024/02/17 10:35:42;;;;;;;;;17.00;17.00;;;;;16.67;50.38;102021.75;146610;581;46012;-75
2024/02/17 10:38:45;;;;;;;;;26.00;22.25;;;;;16.55;50.58;102029.91;146609;587;47010;-76
2024/02/17 10:41:44;;;;;;;;;20.75;20.25;;;;;16.59;50.37;102026.59;146606;630;47003;-75
2024/02/17 10:44:42;;;;;;;;;23.50;21.00;;;;;16.49;49.60;102019.13;146613;570;46021;-75
2024/02/17 10:47:55;;;;;;;;;;;;;;;;;;;;;
2024/02/17 10:50:55;;;;;;;;;24.00;21.25;;;;;16.61;49.03;102018.84;146613;657;46020;-76
2024/02/17 10:53:54;;;;;;;;;30.00;24.75;;;;;16.75;48.62;102016.84;146604;642;47014;-75
2024/02/17 10:57:30;;;;;;;;;29.00;25.00;;;;;16.96;48.57;102006.50;146607;597;46020;-77
2024/02/17 11:00:32;;;;;;;;;29.50;24.50;;;;;17.06;48.59;102009.59;146608;635;46034;-77
2024/02/17 11:03:44;;;;;;;;;24.00;23.00;;;;;17.21;48.90;102000.66;146611;600;46010;-77
2024/02/17 11:06:43;;;;;;;;;22.00;21.50;;;;;17.34;48.75;102004.69;146609;658;46914;-75
2024/02/17 11:09:53;;;;;;;;;26.00;23.00;;;;;17.41;48.04;101998.88;146635;564;46020;-77
2024/02/17 11:12:55;;;;;;;;;30.25;23.25;;;;;17.46;49.11;101993.03;146630;610;46016;-74
2024/02/17 11:16:20;;;;;;;;;24.50;22.00;;;;;15.07;48.67;101558.28;146633;675;45020;-74
2024/02/17 11:19:16;;;;;;;;;26.00;23.00;;;;;17.49;48.19;101979.16;146632;571;46012;-74
2024/02/17 11:22:39;;;;;;;;;26.25;22.25;;;;;17.55;48.04;101982.03;146632;628;46010;-74
2024/02/17 11:25:54;;;;;;;;;22.75;21.75;;;;;15.16;47.85;101590.03;146634;620;45016;-76
2024/02/17 11:28:52;;;;;;;;;24.50;20.50;;;;;17.82;46.80;101992.84;146629;673;45010;-75
2024/02/17 11:31:50;;;;;;;;;22.25;18.50;;;;;17.85;47.13;101985.09;146628;615;45914;-74
2024/02/17 11:34:49;;;;;;;;;20.75;17.75;;;;;17.76;47.19;101982.06;146635;591;45010;-77
2024/02/17 11:37:50;;;;;;;;;23.75;22.75;;;;;17.68;47.58;101986.06;146632;617;46914;-69
2024/02/17 11:40:55;;;;;;;;;27.00;25.75;;;;;17.66;48.22;101974.59;146635;611;46010;-74
2024/02/17 11:43:50;;;;;;;;;19.00;16.25;;;;;17.63;48.19;101978.03;146630;613;46012;-71
2024/02/17 11:46:47;;;;;;;;;28.50;25.25;;;;;17.63;47.40;101984.97;146634;611;46020;-73
2024/02/17 11:49:43;;;;;;;;;22.25;21.00;;;;;17.68;48.35;101975.59;146630;563;46014;-78
2024/02/17 11:52:44;;;;;;;;;18.75;16.00;;;;;17.74;47.89;101979.34;146635;585;45021;-72
2024/02/17 11:55:48;;;;;;;;;16.25;16.25;;;;;17.74;48.39;101970.59;146630;574;45914;-74
2024/02/17 11:58:50;;;;;;;;;22.00;19.50;;;;;17.71;47.68;101968.72;146628;583;46010;-76
2024/02/17 12:01:59;;;;;;;;;18.00;15.75;;;;;17.75;48.52;101965.41;146633;638;45031;-76
2024/02/17 12:05:07;;;;;;;;;21.00;17.00;;;;;17.66;48.71;101964.12;146636;573;45020;-74
2024/02/17 12:08:05;;;;;;;;;17.50;15.50;;;;;17.66;48.92;101959.78;146621;570;46012;-67
2024/02/17 12:11:00;;;;;;;;;15.50;14.00;;;;;17.72;49.21;101964.38;146611;590;47010;-71
2024/02/17 12:13:56;;;;;;;;;14.25;14.00;;;;;17.73;48.68;101960.94;146610;590;46017;-73
2024/02/17 12:16:53;;;;;;;;;17.75;16.25;;;;;17.62;48.92;101946.47;146609;573;47010;-71
2024/02/17 12:19:50;;;;;;;;;15.00;13.75;;;;;17.55;49.38;101948.84;146607;653;46016;-74
2024/02/17 12:22:55;;;;;;;;;16.75;16.50;;;;;17.52;49.47;101946.09;146615;635;46010;-73
2024/02/17 12:25:56;;;;;;;;;15.00;15.00;;;;;17.56;49.63;101944.47;146605;591;47012;-73
2024/02/17 12:28:48;;;;;;;;;19.00;18.00;;;;;17.52;50.29;101951.31;146607;564;46010;-75
2024/02/17 12:31:50;;;;;;;;;20.50;18.00;;;;;17.47;49.13;101944.97;146611;569;46016;-70
2024/02/17 12:34:49;;;;;;;;;20.25;16.25;;;;;17.43;49.30;101944.81;146614;565;46013;-77
2024/02/17 12:37:52;;;;;;;;;17.25;15.50;;;;;17.46;49.90;101943.19;146603;569;47012;-68
2024/02/17 12:40:50;;;;;;;;;19.00;17.25;;;;;17.55;49.52;101940.06;146608;741;47040;-79
2024/02/17 12:44:22;;;;;;;;;18.50;18.00;;;;;17.65;48.67;101937.00;146609;663;46016;-70
2024/02/17 12:47:28;;;;;;;;;19.75;16.00;;;;;17.72;49.38;101941.66;146613;602;46010;-71
2024/02/17 12:50:24;;;;;;;;;22.25;17.75;;;;;17.77;48.15;101936.66;146602;745;47016;-69
2024/02/17 12:53:25;;;;;;;;;22.50;20.50;;;;;17.61;47.72;101916.72;146612;634;46020;-71
2024/02/17 12:56:29;;;;;;;;;21.50;18.25;;;;;17.54;48.62;101940.91;146610;724;46016;-74
2024/02/17 12:59:24;;;;;;;;;19.25;18.75;;;;;17.31;48.66;101939.91;146609;569;46010;-72
2024/02/17 13:02:26;;;;;;;;;16.50;15.00;;;;;17.11;50.25;101946.03;146609;580;46012;-72
2024/02/17 13:05:19;;;;;;;;;17.25;15.75;;;;;16.94;50.73;101943.53;146613;683;46037;-74
2024/02/17 13:08:36;;;;;;;;;11.25;9.25;;;;;16.78;50.47;101947.19;146615;585;47012;-73
2024/02/17 13:11:29;;;;;;;;;19.50;17.50;;;;;16.74;50.95;101942.63;146635;616;45010;-72
2024/02/17 13:14:21;;;;;;;;;20.50;17.00;;;;;16.76;51.82;101946.25;146632;588;45912;-71
2024/02/17 13:17:16;;;;;;;;;21.50;19.25;;;;;16.63;52.12;101952.63;146632;583;47010;-72
2024/02/17 13:20:16;;;;;;;;;20.50;18.50;;;;;16.53;51.17;101950.38;146630;564;46013;-73
2024/02/17 13:23:18;;;;;;;;;17.75;16.75;;;;;16.56;52.50;101945.28;146634;569;46020;-72
2024/02/17 13:26:13;;;;;;;;;19.25;16.00;;;;;16.62;51.63;101945.56;146629;587;46020;-70
2024/02/17 13:29:20;;;;;;;;;19.00;18.50;;;;;16.62;51.24;101945.56;146629;665;45012;-71
2024/02/17 13:32:18;;;;;;;;;17.50;16.00;;;;;16.61;52.22;101948.13;146634;778;45016;-71
2024/02/17 13:35:20;;;;;;;;;18.00;17.00;;;;;16.70;51.44;101943.31;146632;678;45010;-72
2024/02/17 13:38:19;;;;;;;;;23.25;19.00;;;;;16.80;52.04;101937.69;146633;736;45022;-71
2024/02/17 13:41:15;;;;;;;;;19.25;16.75;;;;;16.94;51.60;101943.53;146634;600;46010;-73
2024/02/17 13:44:17;;;;;;;;;15.50;14.75;;;;;17.04;50.88;101937.91;146631;654;46014;-71
2024/02/17 13:47:20;;;;;;;;;23.75;19.75;;;;;17.14;49.89;101951.41;146631;593;45029;-71
2024/02/17 13:50:17;;;;;;;;;24.75;21.25;;;;;17.19;50.53;101952.50;146631;675;46016;-71
2024/02/17 13:53:21;;;;;;;;;20.00;18.50;;;;;17.21;50.14;101943.88;146635;613;45019;-73
2024/02/17 13:56:17;;;;;;;;;21.00;18.75;;;;;17.25;50.34;101948.41;146633;661;45013;-70
2024/02/17 13:59:23;;;;;;;;;20.25;18.50;;;;;17.29;49.66;101952.09;146628;604;45020;-71